createdAt,value
2017-06-14T00:00:27.935Z,0
2017-06-14T00:01:27.898Z,0
2017-06-14T00:02:27.924Z,0
2017-06-14T00:03:27.940Z,0
2017-06-14T00:04:27.944Z,0
2017-06-14T00:05:27.959Z,0
2017-06-14T00:06:27.931Z,0
2017-06-14T00:07:27.934Z,0
2017-06-14T00:08:27.927Z,0
2017-06-14T00:09:27.935Z,0
2017-06-14T00:10:27.923Z,0
2017-06-14T00:11:27.850Z,0
2017-06-14T00:12:27.945Z,0
2017-06-14T00:13:27.919Z,0
2017-06-14T00:14:27.923Z,0
2017-06-14T00:15:27.921Z,0
2017-06-14T00:16:27.922Z,0
2017-06-14T00:17:27.924Z,0
2017-06-14T00:18:27.923Z,0
2017-06-14T00:19:27.925Z,0
2017-06-14T00:20:27.926Z,0
2017-06-14T00:21:27.926Z,0
2017-06-14T00:22:27.926Z,0
2017-06-14T00:23:27.997Z,0
2017-06-14T00:24:27.944Z,0
2017-06-14T00:25:27.951Z,0
2017-06-14T00:26:27.855Z,0
2017-06-14T00:27:27.952Z,0
2017-06-14T00:28:27.865Z,0
2017-06-14T00:29:27.862Z,0
2017-06-14T00:30:27.863Z,0
2017-06-14T00:31:27.954Z,0
2017-06-14T00:32:27.955Z,0
2017-06-14T00:33:27.870Z,0
2017-06-14T00:34:27.863Z,0
2017-06-14T00:35:27.855Z,0
2017-06-14T00:36:27.955Z,0
2017-06-14T00:37:27.866Z,0
2017-06-14T00:38:27.874Z,0
2017-06-14T00:39:27.951Z,0
2017-06-14T00:40:27.953Z,0
2017-06-14T00:41:27.867Z,0
2017-06-14T00:42:27.963Z,0
2017-06-14T00:43:27.952Z,0
2017-06-14T00:44:27.942Z,0
2017-06-14T00:45:28.049Z,0
2017-06-14T00:46:27.940Z,0
2017-06-14T00:47:27.951Z,0
2017-06-14T00:48:27.941Z,0
2017-06-14T00:49:27.942Z,0
2017-06-14T00:50:27.943Z,0
2017-06-14T00:51:27.942Z,0
2017-06-14T00:52:27.945Z,0
2017-06-14T00:53:27.942Z,0
2017-06-14T00:54:27.974Z,0
2017-06-14T00:55:27.899Z,0
2017-06-14T00:56:27.958Z,0
2017-06-14T00:57:27.969Z,0
2017-06-14T00:58:27.960Z,0
2017-06-14T00:59:27.965Z,0
2017-06-14T01:00:27.963Z,0
2017-06-14T01:01:27.878Z,0
2017-06-14T01:02:27.971Z,0
2017-06-14T01:03:27.969Z,0
2017-06-14T01:04:27.949Z,0
2017-06-14T01:05:27.950Z,0
2017-06-14T01:06:27.951Z,0
2017-06-14T01:07:27.951Z,0
2017-06-14T01:08:27.952Z,0
2017-06-14T01:09:27.952Z,0
2017-06-14T01:10:27.951Z,0
2017-06-14T01:11:27.955Z,0
2017-06-14T01:12:27.953Z,0
2017-06-14T01:13:27.951Z,0
2017-06-14T01:14:27.881Z,0
2017-06-14T01:15:27.973Z,0
2017-06-14T01:16:27.940Z,0
2017-06-14T01:17:27.969Z,0
2017-06-14T01:18:27.972Z,0
2017-06-14T01:19:27.890Z,0
2017-06-14T01:20:27.895Z,0
2017-06-14T01:21:27.973Z,0
2017-06-14T01:22:27.988Z,0
2017-06-14T01:23:27.963Z,0
2017-06-14T01:24:27.978Z,0
2017-06-14T01:25:27.893Z,0
2017-06-14T01:26:27.977Z,0
2017-06-14T01:27:27.986Z,0
2017-06-14T01:28:27.942Z,0
2017-06-14T01:29:27.986Z,0
2017-06-14T01:30:27.972Z,0
2017-06-14T01:31:27.901Z,0
2017-06-14T01:32:27.984Z,0
2017-06-14T01:33:27.944Z,0
2017-06-14T01:34:27.885Z,0
2017-06-14T01:35:27.891Z,0
2017-06-14T01:36:27.891Z,0
2017-06-14T01:37:27.931Z,0
2017-06-14T01:38:27.892Z,0
2017-06-14T01:39:27.893Z,0
2017-06-14T01:40:27.892Z,0
2017-06-14T01:41:27.892Z,0
2017-06-14T01:42:27.897Z,0
2017-06-14T01:43:27.891Z,0
2017-06-14T01:44:27.987Z,0
2017-06-14T01:45:27.989Z,0
2017-06-14T01:46:28.000Z,0
2017-06-14T01:47:27.995Z,0
2017-06-14T01:48:27.986Z,0
2017-06-14T01:49:27.987Z,0
2017-06-14T01:50:27.980Z,0
2017-06-14T01:51:27.985Z,0
2017-06-14T01:52:27.984Z,0
2017-06-14T01:53:27.977Z,0
2017-06-14T01:54:27.985Z,0
2017-06-14T01:55:27.981Z,0
2017-06-14T01:56:27.910Z,0
2017-06-14T01:57:27.998Z,0
2017-06-14T01:58:27.910Z,0
2017-06-14T01:59:27.983Z,0
2017-06-14T02:00:28.001Z,0
2017-06-14T02:01:27.957Z,0
2017-06-14T02:02:27.908Z,0
2017-06-14T02:03:27.910Z,0
2017-06-14T02:04:27.898Z,0
2017-06-14T02:05:27.903Z,0
2017-06-14T02:06:27.905Z,0
2017-06-14T02:07:27.904Z,0
2017-06-14T02:08:27.948Z,4
2017-06-14T02:09:27.955Z,4
2017-06-14T02:10:27.950Z,4
2017-06-14T02:11:27.934Z,0
2017-06-14T02:12:27.939Z,0
2017-06-14T02:13:27.909Z,4
2017-06-14T02:14:27.998Z,4
2017-06-14T02:15:28.005Z,4
2017-06-14T02:16:27.967Z,8
2017-06-14T02:17:28.000Z,4
2017-06-14T02:18:27.973Z,4
2017-06-14T02:19:27.991Z,8
2017-06-14T02:20:27.975Z,8
2017-06-14T02:21:27.995Z,8
2017-06-14T02:22:28.017Z,8
2017-06-14T02:23:28.016Z,12
2017-06-14T02:24:28.012Z,12
2017-06-14T02:25:28.004Z,12
2017-06-14T02:26:27.925Z,16
2017-06-14T02:27:28.005Z,16
2017-06-14T02:28:27.994Z,20
2017-06-14T02:29:28.020Z,24
2017-06-14T02:30:27.940Z,24
2017-06-14T02:31:27.999Z,32
2017-06-14T02:32:27.981Z,36
2017-06-14T02:33:27.993Z,40
2017-06-14T02:34:28.002Z,40
2017-06-14T02:35:28.085Z,48
2017-06-14T02:36:28.000Z,56
2017-06-14T02:37:27.998Z,64
2017-06-14T02:38:27.974Z,72
2017-06-14T02:39:28.003Z,80
2017-06-14T02:40:27.996Z,92
2017-06-14T02:41:27.999Z,104
2017-06-14T02:42:28.000Z,116
2017-06-14T02:43:28.005Z,132
2017-06-14T02:44:27.940Z,148
2017-06-14T02:45:28.019Z,168
2017-06-14T02:46:28.020Z,188
2017-06-14T02:47:28.028Z,212
2017-06-14T02:48:28.032Z,240
2017-06-14T02:49:28.020Z,260
2017-06-14T02:50:27.942Z,292
2017-06-14T02:51:27.944Z,320
2017-06-14T02:52:27.939Z,356
2017-06-14T02:53:27.947Z,384
2017-06-14T02:54:28.009Z,416
2017-06-14T02:55:28.009Z,448
2017-06-14T02:56:28.000Z,480
2017-06-14T02:57:28.010Z,516
2017-06-14T02:58:28.011Z,564
2017-06-14T02:59:28.025Z,616
2017-06-14T03:00:28.025Z,676
2017-06-14T03:01:28.014Z,740
2017-06-14T03:02:28.026Z,800
2017-06-14T03:03:28.024Z,856
2017-06-14T03:04:28.015Z,916
2017-06-14T03:05:28.015Z,980
2017-06-14T03:06:28.010Z,1044
2017-06-14T03:07:28.015Z,1112
2017-06-14T03:08:28.014Z,1188
2017-06-14T03:09:27.930Z,1260
2017-06-14T03:10:28.049Z,1344
2017-06-14T03:11:28.032Z,1424
2017-06-14T03:12:28.019Z,1508
2017-06-14T03:13:28.020Z,1592
2017-06-14T03:14:28.024Z,1680
2017-06-14T03:15:28.042Z,1768
2017-06-14T03:16:28.040Z,1860
2017-06-14T03:17:28.015Z,1952
2017-06-14T03:18:27.953Z,2056
2017-06-14T03:19:28.100Z,2172
2017-06-14T03:20:28.097Z,2288
2017-06-14T03:21:28.036Z,2408
2017-06-14T03:22:27.953Z,2524
2017-06-14T03:23:28.039Z,2644
2017-06-14T03:24:27.997Z,2772
2017-06-14T03:25:27.955Z,2904
2017-06-14T03:26:28.017Z,3028
2017-06-14T03:27:28.040Z,3164
2017-06-14T03:28:28.047Z,3296
2017-06-14T03:29:27.958Z,3432
2017-06-14T03:30:28.044Z,3572
2017-06-14T03:31:27.999Z,3716
2017-06-14T03:32:28.045Z,3848
2017-06-14T03:33:27.964Z,3980
2017-06-14T03:34:27.960Z,4128
2017-06-14T03:35:27.962Z,4256
2017-06-14T03:36:28.048Z,4396
2017-06-14T03:37:28.007Z,4528
2017-06-14T03:38:28.027Z,4652
2017-06-14T03:39:27.991Z,4792
2017-06-14T03:40:28.051Z,4928
2017-06-14T03:41:27.960Z,5052
2017-06-14T03:42:27.957Z,5176
2017-06-14T03:43:27.962Z,5312
2017-06-14T03:44:28.053Z,5520
2017-06-14T03:45:27.967Z,5644
2017-06-14T03:46:27.962Z,5776
2017-06-14T03:47:28.014Z,5912
2017-06-14T03:48:27.966Z,6044
2017-06-14T03:49:27.963Z,6184
2017-06-14T03:50:28.019Z,6336
2017-06-14T03:51:28.070Z,6456
2017-06-14T03:52:28.057Z,6592
2017-06-14T03:53:28.035Z,6832
2017-06-14T03:54:28.058Z,7012
2017-06-14T03:55:28.053Z,7252
2017-06-14T03:56:28.071Z,7480
2017-06-14T03:57:28.063Z,7792
2017-06-14T03:58:27.972Z,8080
2017-06-14T03:59:27.974Z,8388
2017-06-14T04:00:28.059Z,8664
2017-06-14T04:01:27.979Z,8944
2017-06-14T04:02:28.055Z,8876
2017-06-14T04:03:28.071Z,8708
2017-06-14T04:04:28.066Z,8460
2017-06-14T04:05:28.022Z,8424
2017-06-14T04:06:28.068Z,8372
2017-06-14T04:07:28.063Z,8432
2017-06-14T04:08:28.061Z,8452
2017-06-14T04:09:27.977Z,8488
2017-06-14T04:10:28.066Z,8476
2017-06-14T04:11:27.976Z,8524
2017-06-14T04:12:27.981Z,8500
2017-06-14T04:13:28.069Z,8484
2017-06-14T04:14:28.071Z,8692
2017-06-14T04:15:28.050Z,9004
2017-06-14T04:16:28.061Z,9292
2017-06-14T04:17:28.053Z,9404
2017-06-14T04:18:28.054Z,9472
2017-06-14T04:19:28.069Z,9152
2017-06-14T04:20:28.051Z,9372
2017-06-14T04:21:28.051Z,9536
2017-06-14T04:22:28.058Z,9716
2017-06-14T04:23:28.056Z,10008
2017-06-14T04:24:28.070Z,10312
2017-06-14T04:25:27.968Z,10508
2017-06-14T04:26:27.964Z,10644
2017-06-14T04:27:28.061Z,10652
2017-06-14T04:28:28.063Z,10604
2017-06-14T04:29:28.020Z,10580
2017-06-14T04:30:28.082Z,10640
2017-06-14T04:31:27.981Z,10676
2017-06-14T04:32:28.086Z,10648
2017-06-14T04:33:28.032Z,10608
2017-06-14T04:34:27.971Z,10628
2017-06-14T04:35:27.993Z,10656
2017-06-14T04:36:27.991Z,10704
2017-06-14T04:37:28.080Z,10720
2017-06-14T04:38:28.072Z,10732
2017-06-14T04:39:27.990Z,10804
2017-06-14T04:40:28.000Z,10852
2017-06-14T04:41:27.991Z,10868
2017-06-14T04:42:27.996Z,10944
2017-06-14T04:43:28.082Z,10916
2017-06-14T04:44:28.084Z,10804
2017-06-14T04:45:28.091Z,10612
2017-06-14T04:46:28.090Z,10588
2017-06-14T04:47:28.084Z,10700
2017-06-14T04:48:28.087Z,10744
2017-06-14T04:49:28.094Z,10764
2017-06-14T04:50:27.999Z,10840
2017-06-14T04:51:28.093Z,10912
2017-06-14T04:52:28.088Z,10856
2017-06-14T04:53:28.080Z,10808
2017-06-14T04:54:28.009Z,10672
2017-06-14T04:55:28.066Z,10472
2017-06-14T04:56:28.071Z,10528
2017-06-14T04:57:28.071Z,10512
2017-06-14T04:58:28.068Z,10432
2017-06-14T04:59:28.071Z,10588
2017-06-14T05:00:28.070Z,10576
2017-06-14T05:01:28.074Z,10940
2017-06-14T05:02:28.071Z,11148
2017-06-14T05:03:28.072Z,11688
2017-06-14T05:04:28.075Z,12256
2017-06-14T05:05:28.073Z,12292
2017-06-14T05:06:28.075Z,12292
2017-06-14T05:07:28.073Z,12440
2017-06-14T05:08:28.076Z,12368
2017-06-14T05:09:28.181Z,12328
2017-06-14T05:10:28.078Z,12368
2017-06-14T05:11:28.074Z,12480
2017-06-14T05:12:28.081Z,12588
2017-06-14T05:13:28.199Z,12616
2017-06-14T05:14:28.200Z,12552
2017-06-14T05:15:28.022Z,12412
2017-06-14T05:16:28.206Z,12552
2017-06-14T05:17:28.064Z,12724
2017-06-14T05:18:28.102Z,13092
2017-06-14T05:19:28.104Z,13276
2017-06-14T05:20:28.110Z,13276
2017-06-14T05:21:28.023Z,13244
2017-06-14T05:22:28.111Z,13204
2017-06-14T05:23:28.112Z,13300
2017-06-14T05:24:28.105Z,13320
2017-06-14T05:25:28.088Z,13412
2017-06-14T05:26:28.003Z,13408
2017-06-14T05:27:28.087Z,13520
2017-06-14T05:28:28.088Z,13368
2017-06-14T05:29:28.091Z,13604
2017-06-14T05:30:28.089Z,13712
2017-06-14T05:31:28.089Z,13728
2017-06-14T05:32:28.094Z,13808
2017-06-14T05:33:28.092Z,13812
2017-06-14T05:34:28.174Z,13796
2017-06-14T05:35:28.092Z,13784
2017-06-14T05:36:28.091Z,13708
2017-06-14T05:37:28.090Z,13752
2017-06-14T05:38:28.007Z,13852
2017-06-14T05:39:28.095Z,14032
2017-06-14T05:40:28.093Z,14256
2017-06-14T05:41:28.090Z,14452
2017-06-14T05:42:28.098Z,15268
2017-06-14T05:43:28.093Z,25728
2017-06-14T05:44:28.098Z,40128
2017-06-14T05:45:28.118Z,45120
2017-06-14T05:46:28.124Z,43872
2017-06-14T05:47:28.099Z,34368
2017-06-14T05:48:28.077Z,28928
2017-06-14T05:49:28.123Z,41952
2017-06-14T05:50:28.031Z,56064
2017-06-14T05:51:28.031Z,50656
2017-06-14T05:52:28.101Z,39040
2017-06-14T05:53:28.032Z,50016
2017-06-14T05:54:28.132Z,63520
2017-06-14T05:55:28.120Z,53216
2017-06-14T05:56:28.118Z,37184
2017-06-14T05:57:28.101Z,40256
2017-06-14T05:58:28.085Z,49728
2017-06-14T05:59:28.122Z,44192
2017-06-14T06:00:28.125Z,39616
2017-06-14T06:01:28.128Z,37984
2017-06-14T06:02:28.126Z,37632
2017-06-14T06:03:28.039Z,39456
2017-06-14T06:04:28.131Z,36320
2017-06-14T06:05:28.064Z,33952
2017-06-14T06:06:28.038Z,35072
2017-06-14T06:07:28.127Z,34272
2017-06-14T06:08:28.049Z,33632
2017-06-14T06:09:28.046Z,31904
2017-06-14T06:10:28.112Z,27264
2017-06-14T06:11:28.107Z,26272
2017-06-14T06:12:28.134Z,29376
2017-06-14T06:13:28.131Z,35808
2017-06-14T06:14:28.113Z,37920
2017-06-14T06:15:28.044Z,35648
2017-06-14T06:16:28.038Z,36896
2017-06-14T06:17:28.040Z,41408
2017-06-14T06:18:28.039Z,47680
2017-06-14T06:19:28.124Z,48192
2017-06-14T06:20:28.026Z,52704
2017-06-14T06:21:28.048Z,53312
2017-06-14T06:22:28.088Z,52032
2017-06-14T06:23:28.025Z,50112
2017-06-14T06:24:28.038Z,48352
2017-06-14T06:25:28.109Z,49248
2017-06-14T06:26:28.109Z,53312
2017-06-14T06:27:28.110Z,58528
2017-06-14T06:28:28.111Z,63744
2017-06-14T06:29:28.109Z,66912
2017-06-14T06:30:28.112Z,67456
2017-06-14T06:31:28.112Z,65984
2017-06-14T06:32:28.216Z,63488
2017-06-14T06:33:28.114Z,60832
2017-06-14T06:34:28.112Z,58816
2017-06-14T06:35:28.115Z,58080
2017-06-14T06:36:28.145Z,59968
2017-06-14T06:37:28.059Z,62112
2017-06-14T06:38:28.069Z,64448
2017-06-14T06:39:28.064Z,65216
2017-06-14T06:40:28.064Z,65312
2017-06-14T06:41:28.072Z,64704
2017-06-14T06:42:28.066Z,64416
2017-06-14T06:43:28.060Z,65216
2017-06-14T06:44:28.156Z,65952
2017-06-14T06:45:28.159Z,67104
2017-06-14T06:46:28.102Z,68416
2017-06-14T06:47:28.156Z,69696
2017-06-14T06:48:28.095Z,71136
2017-06-14T06:49:28.130Z,72608
2017-06-14T06:50:28.112Z,74848
2017-06-14T06:51:28.117Z,77120
2017-06-14T06:52:28.153Z,78592
2017-06-14T06:53:28.076Z,79616
2017-06-14T06:54:28.071Z,80320
2017-06-14T06:55:28.139Z,79776
2017-06-14T06:56:28.072Z,77888
2017-06-14T06:57:28.151Z,75328
2017-06-14T06:58:28.167Z,73600
2017-06-14T06:59:28.071Z,72512
2017-06-14T07:00:28.119Z,72480
2017-06-14T07:01:28.151Z,74240
2017-06-14T07:02:28.152Z,77216
2017-06-14T07:03:28.067Z,79648
2017-06-14T07:04:28.070Z,81344
2017-06-14T07:05:28.073Z,82336
2017-06-14T07:06:28.118Z,82976
2017-06-14T07:07:28.138Z,83072
2017-06-14T07:08:28.160Z,83776
2017-06-14T07:09:28.165Z,84416
2017-06-14T07:10:28.170Z,84768
2017-06-14T07:11:28.127Z,84928
2017-06-14T07:12:28.169Z,84256
2017-06-14T07:13:28.124Z,83360
2017-06-14T07:14:28.145Z,82336
2017-06-14T07:15:28.172Z,81248
2017-06-14T07:16:28.166Z,80064
2017-06-14T07:17:28.082Z,79840
2017-06-14T07:18:28.162Z,81472
2017-06-14T07:19:28.087Z,84544
2017-06-14T07:20:28.133Z,88032
2017-06-14T07:21:28.174Z,92576
2017-06-14T07:22:28.084Z,95360
2017-06-14T07:23:28.151Z,97408
2017-06-14T07:24:28.136Z,97376
2017-06-14T07:25:28.096Z,96448
2017-06-14T07:26:28.087Z,93984
2017-06-14T07:27:28.175Z,91168
2017-06-14T07:28:28.086Z,88672
2017-06-14T07:29:28.134Z,87232
2017-06-14T07:30:28.169Z,87488
2017-06-14T07:31:28.084Z,89280
2017-06-14T07:32:28.169Z,91168
2017-06-14T07:33:28.192Z,95168
2017-06-14T07:34:28.177Z,100224
2017-06-14T07:35:28.180Z,103136
2017-06-14T07:36:28.181Z,104096
2017-06-14T07:37:28.097Z,104352
2017-06-14T07:38:28.178Z,102432
2017-06-14T07:39:28.090Z,97952
2017-06-14T07:40:28.140Z,92928
2017-06-14T07:41:28.174Z,89024
2017-06-14T07:42:28.287Z,86048
2017-06-14T07:43:28.187Z,85152
2017-06-14T07:44:28.095Z,87840
2017-06-14T07:45:28.176Z,92672
2017-06-14T07:46:28.097Z,98624
2017-06-14T07:47:28.180Z,104064
2017-06-14T07:48:28.183Z,106656
2017-06-14T07:49:28.193Z,107040
2017-06-14T07:50:28.186Z,103456
2017-06-14T07:51:28.106Z,100704
2017-06-14T07:52:28.198Z,98304
2017-06-14T07:53:28.177Z,95264
2017-06-14T07:54:28.289Z,97216
2017-06-14T07:55:28.192Z,98592
2017-06-14T07:56:28.108Z,101792
2017-06-14T07:57:28.191Z,103616
2017-06-14T07:58:28.097Z,106240
2017-06-14T07:59:28.193Z,108256
2017-06-14T08:00:28.249Z,109696
2017-06-14T08:01:28.188Z,110464
2017-06-14T08:02:28.157Z,110560
2017-06-14T08:03:28.171Z,110624
2017-06-14T08:04:28.193Z,109280
2017-06-14T08:05:28.188Z,111680
2017-06-14T08:06:28.110Z,114400
2017-06-14T08:07:28.157Z,115392
2017-06-14T08:08:28.113Z,115456
2017-06-14T08:09:28.196Z,115680
2017-06-14T08:10:28.200Z,114752
2017-06-14T08:11:28.174Z,116384
2017-06-14T08:12:28.193Z,116032
2017-06-14T08:13:28.176Z,115200
2017-06-14T08:14:28.108Z,114528
2017-06-14T08:15:28.117Z,114592
2017-06-14T08:16:28.201Z,113984
2017-06-14T08:17:28.111Z,115712
2017-06-14T08:18:28.205Z,118432
2017-06-14T08:19:28.207Z,121088
2017-06-14T08:20:28.158Z,124384
2017-06-14T08:21:28.191Z,125184
2017-06-14T08:22:28.203Z,123392
2017-06-14T08:23:28.176Z,123168
2017-06-14T08:24:28.202Z,122624
2017-06-14T08:25:28.198Z,121056
2017-06-14T08:26:28.199Z,120032
2017-06-14T08:27:28.180Z,120960
2017-06-14T08:28:28.198Z,121152
2017-06-14T08:29:28.241Z,121312
2017-06-14T08:30:28.206Z,120224
2017-06-14T08:31:28.158Z,120768
2017-06-14T08:32:28.212Z,125408
2017-06-14T08:33:28.171Z,129856
2017-06-14T08:34:28.207Z,133024
2017-06-14T08:35:28.202Z,136192
2017-06-14T08:36:28.115Z,136576
2017-06-14T08:37:28.114Z,134304
2017-06-14T08:38:28.107Z,132576
2017-06-14T08:39:28.136Z,129184
2017-06-14T08:40:28.118Z,127520
2017-06-14T08:41:28.110Z,125184
2017-06-14T08:42:28.160Z,125920
2017-06-14T08:43:28.172Z,126912
2017-06-14T08:44:28.116Z,126912
2017-06-14T08:45:28.102Z,126208
2017-06-14T08:46:28.206Z,132768
2017-06-14T08:47:28.130Z,134688
2017-06-14T08:48:28.212Z,132160
2017-06-14T08:49:28.216Z,130272
2017-06-14T08:50:28.150Z,127456
2017-06-14T08:51:28.137Z,126752
2017-06-14T08:52:28.227Z,124512
2017-06-14T08:53:28.220Z,125600
2017-06-14T08:54:28.138Z,128768
2017-06-14T08:55:28.226Z,129568
2017-06-14T08:56:28.291Z,124864
2017-06-14T08:57:28.191Z,125792
2017-06-14T08:58:28.191Z,116128
2017-06-14T08:59:28.192Z,121536
2017-06-14T09:00:28.294Z,122208
2017-06-14T09:01:28.195Z,125056
2017-06-14T09:02:28.195Z,129728
2017-06-14T09:03:28.193Z,131744
2017-06-14T09:04:28.197Z,133760
2017-06-14T09:05:28.197Z,112384
2017-06-14T09:06:28.132Z,133760
2017-06-14T09:07:28.209Z,131552
2017-06-14T09:08:28.209Z,129408
2017-06-14T09:09:28.209Z,129760
2017-06-14T09:10:28.210Z,133024
2017-06-14T09:11:28.210Z,127264
2017-06-14T09:12:28.211Z,137184
2017-06-14T09:13:28.210Z,134784
2017-06-14T09:14:28.216Z,131808
2017-06-14T09:15:28.211Z,128000
2017-06-14T09:16:28.215Z,131232
2017-06-14T09:17:28.211Z,130176
2017-06-14T09:18:28.214Z,126688
2017-06-14T09:19:28.214Z,126016
2017-06-14T09:20:28.217Z,127264
2017-06-14T09:21:28.213Z,133184
2017-06-14T09:22:28.221Z,121280
2017-06-14T09:23:28.215Z,125248
2017-06-14T09:24:28.220Z,123232
2017-06-14T09:25:28.217Z,116480
2017-06-14T09:26:28.218Z,119168
2017-06-14T09:27:28.218Z,112256
2017-06-14T09:28:28.218Z,114112
2017-06-14T09:29:28.220Z,119328
2017-06-14T09:30:28.217Z,125056
2017-06-14T09:31:28.221Z,132608
2017-06-14T09:32:28.221Z,138560
2017-06-14T09:33:28.222Z,142272
2017-06-14T09:34:28.221Z,140384
2017-06-14T09:35:28.224Z,137984
2017-06-14T09:36:28.240Z,135040
2017-06-14T09:37:28.154Z,137184
2017-06-14T09:38:28.250Z,132288
2017-06-14T09:39:28.160Z,130336
2017-06-14T09:40:28.160Z,133856
2017-06-14T09:41:28.161Z,136992
2017-06-14T09:42:28.224Z,137984
2017-06-14T09:43:28.250Z,138176
2017-06-14T09:44:28.162Z,137888
2017-06-14T09:45:28.222Z,139328
2017-06-14T09:46:28.227Z,141632
2017-06-14T09:47:28.229Z,140256
2017-06-14T09:48:28.228Z,139232
2017-06-14T09:49:28.231Z,135808
2017-06-14T09:50:28.230Z,139968
2017-06-14T09:51:28.232Z,141984
2017-06-14T09:52:28.229Z,143296
2017-06-14T09:53:28.235Z,143776
2017-06-14T09:54:28.231Z,142656
2017-06-14T09:55:28.234Z,141408
2017-06-14T09:56:28.169Z,138944
2017-06-14T09:57:28.255Z,137440
2017-06-14T09:58:28.245Z,138048
2017-06-14T09:59:28.169Z,139840
2017-06-14T10:00:28.255Z,141376
2017-06-14T10:01:28.213Z,141728
2017-06-14T10:02:28.255Z,140192
2017-06-14T10:03:28.253Z,137632
2017-06-14T10:04:28.255Z,135648
2017-06-14T10:05:28.258Z,134240
2017-06-14T10:06:28.257Z,135616
2017-06-14T10:07:28.172Z,137568
2017-06-14T10:08:28.173Z,137280
2017-06-14T10:09:28.180Z,137248
2017-06-14T10:10:28.258Z,136800
2017-06-14T10:11:28.260Z,136160
2017-06-14T10:12:28.223Z,134368
2017-06-14T10:13:28.179Z,133184
2017-06-14T10:14:28.267Z,133216
2017-06-14T10:15:28.269Z,135648
2017-06-14T10:16:28.159Z,139648
2017-06-14T10:17:28.242Z,142816
2017-06-14T10:18:28.249Z,145856
2017-06-14T10:19:28.249Z,146496
2017-06-14T10:20:28.251Z,144928
2017-06-14T10:21:28.246Z,143072
2017-06-14T10:22:28.263Z,141920
2017-06-14T10:23:28.249Z,142368
2017-06-14T10:24:28.253Z,144608
2017-06-14T10:25:28.247Z,146816
2017-06-14T10:26:28.191Z,148160
2017-06-14T10:27:28.191Z,148896
2017-06-14T10:28:28.188Z,147136
2017-06-14T10:29:28.183Z,144448
2017-06-14T10:30:28.231Z,142144
2017-06-14T10:31:28.195Z,139296
2017-06-14T10:32:28.190Z,138944
2017-06-14T10:33:28.186Z,140896
2017-06-14T10:34:28.273Z,142176
2017-06-14T10:35:28.191Z,143648
2017-06-14T10:36:28.270Z,145984
2017-06-14T10:37:28.254Z,146400
2017-06-14T10:38:28.189Z,144640
2017-06-14T10:39:28.194Z,143200
2017-06-14T10:40:28.278Z,142080
2017-06-14T10:41:28.278Z,142912
2017-06-14T10:42:28.278Z,143552
2017-06-14T10:43:28.279Z,146176
2017-06-14T10:44:28.286Z,147104
2017-06-14T10:45:28.274Z,150816
2017-06-14T10:46:28.239Z,151072
2017-06-14T10:47:28.276Z,150752
2017-06-14T10:48:28.195Z,149792
2017-06-14T10:49:28.281Z,150784
2017-06-14T10:50:28.288Z,148992
2017-06-14T10:51:28.283Z,149376
2017-06-14T10:52:28.290Z,149952
2017-06-14T10:53:28.195Z,150688
2017-06-14T10:54:28.265Z,151616
2017-06-14T10:55:28.203Z,153440
2017-06-14T10:56:28.288Z,154528
2017-06-14T10:57:28.277Z,153792
2017-06-14T10:58:28.281Z,152288
2017-06-14T10:59:28.231Z,151296
2017-06-14T11:00:28.261Z,152640
2017-06-14T11:01:28.288Z,154592
2017-06-14T11:02:28.284Z,155104
2017-06-14T11:03:28.290Z,155200
2017-06-14T11:04:28.209Z,154656
2017-06-14T11:05:28.342Z,154432
2017-06-14T11:06:28.201Z,154304
2017-06-14T11:07:28.207Z,154080
2017-06-14T11:08:28.272Z,154368
2017-06-14T11:09:28.274Z,155008
2017-06-14T11:10:28.276Z,154944
2017-06-14T11:11:28.280Z,153984
2017-06-14T11:12:28.277Z,151488
2017-06-14T11:13:28.276Z,151296
2017-06-14T11:14:28.234Z,149952
2017-06-14T11:15:28.276Z,150144
2017-06-14T11:16:28.279Z,149824
2017-06-14T11:17:28.279Z,151104
2017-06-14T11:18:28.282Z,152736
2017-06-14T11:19:28.277Z,154528
2017-06-14T11:20:28.284Z,155200
2017-06-14T11:21:28.369Z,156320
2017-06-14T11:22:28.282Z,155584
2017-06-14T11:23:28.281Z,151744
2017-06-14T11:24:28.285Z,147296
2017-06-14T11:25:28.281Z,143936
2017-06-14T11:26:28.205Z,141696
2017-06-14T11:27:28.309Z,143904
2017-06-14T11:28:28.302Z,144224
2017-06-14T11:30:28.307Z,148704
2017-06-14T11:31:28.271Z,149792
2017-06-14T11:32:28.356Z,148224
2017-06-14T11:33:28.227Z,146240
2017-06-14T11:34:28.263Z,143744
2017-06-14T11:35:28.283Z,143584
2017-06-14T11:36:28.304Z,146016
2017-06-14T11:37:28.214Z,151264
2017-06-14T11:38:28.288Z,157728
2017-06-14T11:39:28.304Z,161152
2017-06-14T11:40:28.268Z,161632
2017-06-14T11:41:28.311Z,159200
2017-06-14T11:42:28.229Z,156128
2017-06-14T11:43:28.228Z,155648
2017-06-14T11:44:28.316Z,153248
2017-06-14T11:45:28.228Z,151360
2017-06-14T11:46:28.315Z,153248
2017-06-14T11:47:28.218Z,155712
2017-06-14T11:48:28.318Z,151936
2017-06-14T11:49:28.395Z,151552
2017-06-14T11:50:28.316Z,150688
2017-06-14T11:51:28.233Z,149984
2017-06-14T11:52:28.235Z,148288
2017-06-14T11:53:28.230Z,147232
2017-06-14T11:54:28.276Z,147584
2017-06-14T11:55:28.232Z,150112
2017-06-14T11:56:28.311Z,151904
2017-06-14T11:57:28.301Z,152000
2017-06-14T11:58:28.301Z,151264
2017-06-14T11:59:28.300Z,149120
2017-06-14T12:00:28.300Z,147296
2017-06-14T12:01:28.303Z,145664
2017-06-14T12:02:28.301Z,143648
2017-06-14T12:03:28.303Z,141920
2017-06-14T12:04:28.303Z,143264
2017-06-14T12:05:28.303Z,143552
2017-06-14T12:06:28.219Z,143328
2017-06-14T12:07:28.240Z,142752
2017-06-14T12:08:28.241Z,143584
2017-06-14T12:09:28.239Z,144928
2017-06-14T12:10:28.327Z,144512
2017-06-14T12:11:28.335Z,142784
2017-06-14T12:12:28.239Z,144736
2017-06-14T12:13:28.243Z,148160
2017-06-14T12:14:28.252Z,151584
2017-06-14T12:15:28.329Z,153344
2017-06-14T12:16:28.286Z,153760
2017-06-14T12:17:28.308Z,151872
2017-06-14T12:18:28.318Z,145440
2017-06-14T12:19:28.313Z,136640
2017-06-14T12:20:28.316Z,131584
2017-06-14T12:21:28.317Z,131744
2017-06-14T12:22:28.418Z,135552
2017-06-14T12:23:28.314Z,142368
2017-06-14T12:24:28.316Z,148736
2017-06-14T12:25:28.315Z,153984
2017-06-14T12:26:28.321Z,154656
2017-06-14T12:27:28.313Z,147616
2017-06-14T12:28:28.259Z,140128
2017-06-14T12:29:28.294Z,140512
2017-06-14T12:30:28.259Z,141472
2017-06-14T12:31:28.339Z,147200
2017-06-14T12:32:28.345Z,151712
2017-06-14T12:33:28.254Z,153984
2017-06-14T12:34:28.259Z,155072
2017-06-14T12:35:28.297Z,152000
2017-06-14T12:36:28.254Z,146912
2017-06-14T12:37:28.321Z,144640
2017-06-14T12:38:28.320Z,143744
2017-06-14T12:39:28.239Z,143616
2017-06-14T12:40:28.324Z,139584
2017-06-14T12:41:28.324Z,143136
2017-06-14T12:42:28.324Z,149152
2017-06-14T12:43:28.328Z,153440
2017-06-14T12:44:28.323Z,152864
2017-06-14T12:45:28.340Z,152480
2017-06-14T12:46:28.327Z,151040
2017-06-14T12:47:28.255Z,143232
2017-06-14T12:48:28.346Z,145856
2017-06-14T12:49:28.307Z,147520
2017-06-14T12:50:28.349Z,145472
2017-06-14T12:51:28.267Z,143232
2017-06-14T12:52:28.349Z,147360
2017-06-14T12:53:28.328Z,149312
2017-06-14T12:54:28.265Z,151168
2017-06-14T12:55:28.362Z,151104
2017-06-14T12:56:28.272Z,148672
2017-06-14T12:57:28.326Z,145760
2017-06-14T12:58:28.344Z,142560
2017-06-14T12:59:28.353Z,140416
2017-06-14T13:00:28.326Z,140832
2017-06-14T13:01:28.357Z,140512
2017-06-14T13:02:28.271Z,140640
2017-06-14T13:03:28.346Z,142720
2017-06-14T13:04:28.273Z,142752
2017-06-14T13:05:28.407Z,141376
2017-06-14T13:06:28.407Z,143232
2017-06-14T13:07:28.271Z,142496